sensor_id;sensor_type;location;lat;lon;timestamp;pressure;altitude;pressure_sealevel;temperature;humidity
50632;BME280;49583;45.590;-122.498;2023-02-20T00:00:20;102245.40;;;9.67;65.81
50632;BME280;49583;45.590;-122.498;2023-02-20T00:02:59;102242.64;;;9.63;65.72
50632;BME280;49583;45.590;-122.498;2023-02-20T00:05:13;102243.92;;;9.59;65.60
50632;BME280;49583;45.590;-122.498;2023-02-20T00:07:28;102254.64;;;9.56;65.41
50632;BME280;49583;45.590;-122.498;2023-02-20T00:09:42;102249.79;;;9.53;65.92
50632;BME280;49583;45.590;-122.498;2023-02-20T00:11:56;102243.42;;;9.51;65.82
50632;BME280;49583;45.590;-122.498;2023-02-20T00:14:10;102237.06;;;9.49;65.77
50632;BME280;49583;45.590;-122.498;2023-02-20T00:16:23;102233.38;;;9.46;65.97
50632;BME280;49583;45.590;-122.498;2023-02-20T00:18:36;102237.35;;;9.42;65.92
50632;BME280;49583;45.590;-122.498;2023-02-20T00:20:48;102235.74;;;9.38;66.22
50632;BME280;49583;45.590;-122.498;2023-02-20T00:23:01;102240.03;;;9.36;66.73
50632;BME280;49583;45.590;-122.498;2023-02-20T00:25:14;102242.30;;;9.37;66.52
50632;BME280;49583;45.590;-122.498;2023-02-20T00:27:27;102240.11;;;9.39;67.04
50632;BME280;49583;45.590;-122.498;2023-02-20T00:29:40;102231.57;;;9.39;66.61
50632;BME280;49583;45.590;-122.498;2023-02-20T00:31:57;102229.44;;;9.39;67.08
50632;BME280;49583;45.590;-122.498;2023-02-20T00:34:09;102220.76;;;9.39;67.01
50632;BME280;49583;45.590;-122.498;2023-02-20T00:36:25;102221.14;;;9.37;66.97
50632;BME280;49583;45.590;-122.498;2023-02-20T00:38:38;102220.43;;;9.37;67.16
50632;BME280;49583;45.590;-122.498;2023-02-20T00:40:51;102220.30;;;9.37;67.22
50632;BME280;49583;45.590;-122.498;2023-02-20T00:43:03;102218.44;;;9.37;67.13
50632;BME280;49583;45.590;-122.498;2023-02-20T00:45:17;102214.08;;;9.39;67.70
50632;BME280;49583;45.590;-122.498;2023-02-20T00:47:30;102209.55;;;9.41;67.78
50632;BME280;49583;45.590;-122.498;2023-02-20T00:49:43;102201.29;;;9.41;67.68
50632;BME280;49583;45.590;-122.498;2023-02-20T00:51:57;102195.86;;;9.42;67.71
50632;BME280;49583;45.590;-122.498;2023-02-20T00:54:11;102196.61;;;9.43;67.75
50632;BME280;49583;45.590;-122.498;2023-02-20T00:56:25;102190.95;;;9.44;67.93
50632;BME280;49583;45.590;-122.498;2023-02-20T00:58:40;102178.67;;;9.39;67.58
50632;BME280;49583;45.590;-122.498;2023-02-20T01:00:54;102178.34;;;9.43;67.91
50632;BME280;49583;45.590;-122.498;2023-02-20T01:03:07;102171.02;;;9.42;68.24
50632;BME280;49583;45.590;-122.498;2023-02-20T01:05:23;102168.70;;;9.41;68.22
50632;BME280;49583;45.590;-122.498;2023-02-20T01:07:37;102170.62;;;9.39;68.10
50632;BME280;49583;45.590;-122.498;2023-02-20T01:09:50;102160.65;;;9.36;67.86
50632;BME280;49583;45.590;-122.498;2023-02-20T01:12:03;102147.89;;;9.33;68.20
50632;BME280;49583;45.590;-122.498;2023-02-20T01:14:16;102160.61;;;9.29;68.19
50632;BME280;49583;45.590;-122.498;2023-02-20T01:16:30;102149.84;;;9.25;68.39
50632;BME280;49583;45.590;-122.498;2023-02-20T01:18:44;102142.17;;;9.23;68.54
50632;BME280;49583;45.590;-122.498;2023-02-20T01:21:00;102138.57;;;9.21;68.55
50632;BME280;49583;45.590;-122.498;2023-02-20T01:23:14;102138.61;;;9.20;68.49
50632;BME280;49583;45.590;-122.498;2023-02-20T01:25:28;102144.69;;;9.20;68.68
50632;BME280;49583;45.590;-122.498;2023-02-20T01:27:41;102154.90;;;9.20;68.84
50632;BME280;49583;45.590;-122.498;2023-02-20T01:29:55;102158.47;;;9.19;68.82
50632;BME280;49583;45.590;-122.498;2023-02-20T01:32:12;102153.98;;;9.20;68.70
50632;BME280;49583;45.590;-122.498;2023-02-20T01:34:25;102153.20;;;9.20;69.06
50632;BME280;49583;45.590;-122.498;2023-02-20T01:36:43;102155.19;;;9.21;69.22
50632;BME280;49583;45.590;-122.498;2023-02-20T01:38:57;102152.98;;;9.22;69.30
50632;BME280;49583;45.590;-122.498;2023-02-20T01:41:12;102153.65;;;9.23;69.27
50632;BME280;49583;45.590;-122.498;2023-02-20T01:43:25;102160.48;;;9.23;69.03
50632;BME280;49583;45.590;-122.498;2023-02-20T01:45:39;102160.85;;;9.22;68.96
50632;BME280;49583;45.590;-122.498;2023-02-20T01:47:53;102155.95;;;9.17;68.81
50632;BME280;49583;45.590;-122.498;2023-02-20T01:50:08;102164.05;;;9.14;68.54
50632;BME280;49583;45.590;-122.498;2023-02-20T01:52:24;102156.95;;;9.12;68.44
50632;BME280;49583;45.590;-122.498;2023-02-20T01:54:40;102150.56;;;9.12;68.66
50632;BME280;49583;45.590;-122.498;2023-02-20T01:56:55;102135.56;;;9.11;68.70
50632;BME280;49583;45.590;-122.498;2023-02-20T01:59:11;102138.17;;;9.12;68.68
50632;BME280;49583;45.590;-122.498;2023-02-20T02:01:25;102128.98;;;9.13;68.77
50632;BME280;49583;45.590;-122.498;2023-02-20T02:03:42;102122.26;;;9.18;69.55
50632;BME280;49583;45.590;-122.498;2023-02-20T02:06:00;102127.28;;;9.28;69.32
50632;BME280;49583;45.590;-122.498;2023-02-20T02:08:16;102129.23;;;9.41;69.42
50632;BME280;49583;45.590;-122.498;2023-02-20T02:10:32;102136.39;;;9.56;69.49
50632;BME280;49583;45.590;-122.498;2023-02-20T02:12:51;102147.82;;;9.77;69.64
50632;BME280;49583;45.590;-122.498;2023-02-20T02:15:14;102149.92;;;9.94;69.21
50632;BME280;49583;45.590;-122.498;2023-02-20T02:17:49;102151.88;;;10.09;68.95
50632;BME280;49583;45.590;-122.498;2023-02-20T02:25:52;102167.59;;;10.57;68.50
50632;BME280;49583;45.590;-122.498;2023-02-20T02:28:47;102174.55;;;10.67;68.49
50632;BME280;49583;45.590;-122.498;2023-02-20T02:36:38;102158.72;;;10.87;67.76
50632;BME280;49583;45.590;-122.498;2023-02-20T02:39:02;102171.75;;;10.86;67.48
50632;BME280;49583;45.590;-122.498;2023-02-20T02:41:22;102171.23;;;10.82;67.34
50632;BME280;49583;45.590;-122.498;2023-02-20T02:43:47;102174.58;;;10.76;67.33
50632;BME280;49583;45.590;-122.498;2023-02-20T02:46:05;102167.62;;;10.70;67.28
50632;BME280;49583;45.590;-122.498;2023-02-20T02:48:22;102171.64;;;10.62;67.20
50632;BME280;49583;45.590;-122.498;2023-02-20T02:50:39;102177.09;;;10.54;66.96
50632;BME280;49583;45.590;-122.498;2023-02-20T02:52:54;102182.06;;;10.47;67.03
50632;BME280;49583;45.590;-122.498;2023-02-20T02:55:08;102182.77;;;10.39;67.06
50632;BME280;49583;45.590;-122.498;2023-02-20T02:57:25;102180.05;;;10.33;67.12
50632;BME280;49583;45.590;-122.498;2023-02-20T02:59:38;102185.46;;;10.27;67.04
50632;BME280;49583;45.590;-122.498;2023-02-20T03:01:56;102195.82;;;10.21;66.91
50632;BME280;49583;45.590;-122.498;2023-02-20T03:04:12;102195.55;;;10.16;67.12
50632;BME280;49583;45.590;-122.498;2023-02-20T03:06:36;102201.55;;;10.12;67.24
50632;BME280;49583;45.590;-122.498;2023-02-20T03:08:52;102203.90;;;10.08;67.26
50632;BME280;49583;45.590;-122.498;2023-02-20T03:11:19;102200.59;;;10.03;67.06
50632;BME280;49583;45.590;-122.498;2023-02-20T03:13:37;102206.34;;;9.99;67.27
50632;BME280;49583;45.590;-122.498;2023-02-20T03:16:09;102208.50;;;9.92;67.19
50632;BME280;49583;45.590;-122.498;2023-02-20T03:18:28;102222.23;;;9.87;66.94
50632;BME280;49583;45.590;-122.498;2023-02-20T03:20:45;102220.23;;;9.81;66.76
50632;BME280;49583;45.590;-122.498;2023-02-20T03:23:02;102219.87;;;9.74;67.13
50632;BME280;49583;45.590;-122.498;2023-02-20T03:25:20;102220.02;;;9.67;67.11
50632;BME280;49583;45.590;-122.498;2023-02-20T03:27:38;102214.90;;;9.61;67.19
50632;BME280;49583;45.590;-122.498;2023-02-20T03:29:55;102217.02;;;9.54;67.19
50632;BME280;49583;45.590;-122.498;2023-02-20T03:32:12;102213.66;;;9.48;67.45
50632;BME280;49583;45.590;-122.498;2023-02-20T03:34:46;102216.45;;;9.44;67.27
50632;BME280;49583;45.590;-122.498;2023-02-20T03:37:20;102216.77;;;9.41;67.39
50632;BME280;49583;45.590;-122.498;2023-02-20T03:39:53;102220.52;;;9.40;67.70
50632;BME280;49583;45.590;-122.498;2023-02-20T03:42:26;102218.35;;;9.39;67.34
50632;BME280;49583;45.590;-122.498;2023-02-20T03:45:05;102227.31;;;9.39;67.68
50632;BME280;49583;45.590;-122.498;2023-02-20T03:47:20;102225.45;;;9.39;67.59
50632;BME280;49583;45.590;-122.498;2023-02-20T03:49:39;102219.27;;;9.39;67.60
50632;BME280;49583;45.590;-122.498;2023-02-20T03:51:55;102215.61;;;9.39;67.69
50632;BME280;49583;45.590;-122.498;2023-02-20T03:54:16;102211.34;;;9.39;67.67
50632;BME280;49583;45.590;-122.498;2023-02-20T03:56:32;102206.15;;;9.39;67.36
50632;BME280;49583;45.590;-122.498;2023-02-20T03:58:49;102203.38;;;9.38;67.15
50632;BME280;49583;45.590;-122.498;2023-02-20T04:01:07;102212.25;;;9.37;67.44
50632;BME280;49583;45.590;-122.498;2023-02-20T04:03:22;102214.67;;;9.37;67.35
50632;BME280;49583;45.590;-122.498;2023-02-20T04:05:40;102220.30;;;9.37;67.38
50632;BME280;49583;45.590;-122.498;2023-02-20T04:08:00;102220.45;;;9.38;67.40
50632;BME280;49583;45.590;-122.498;2023-02-20T04:10:18;102222.40;;;9.37;67.33
50632;BME280;49583;45.590;-122.498;2023-02-20T04:12:36;102227.86;;;9.37;67.53
50632;BME280;49583;45.590;-122.498;2023-02-20T04:14:52;102230.82;;;9.37;67.69
50632;BME280;49583;45.590;-122.498;2023-02-20T04:17:09;102231.02;;;9.36;67.72
50632;BME280;49583;45.590;-122.498;2023-02-20T04:19:26;102230.85;;;9.36;67.47
50632;BME280;49583;45.590;-122.498;2023-02-20T04:21:41;102219.13;;;9.34;67.83
50632;BME280;49583;45.590;-122.498;2023-02-20T04:24:01;102220.23;;;9.34;67.55
50632;BME280;49583;45.590;-122.498;2023-02-20T04:26:16;102223.76;;;9.33;67.94
50632;BME280;49583;45.590;-122.498;2023-02-20T04:28:32;102222.23;;;9.31;68.08
50632;BME280;49583;45.590;-122.498;2023-02-20T04:30:47;102229.92;;;9.30;67.98
50632;BME280;49583;45.590;-122.498;2023-02-20T04:33:01;102236.66;;;9.27;68.09
50632;BME280;49583;45.590;-122.498;2023-02-20T04:35:17;102232.83;;;9.24;68.31
50632;BME280;49583;45.590;-122.498;2023-02-20T04:37:32;102238.28;;;9.21;68.46
50632;BME280;49583;45.590;-122.498;2023-02-20T04:39:46;102245.34;;;9.18;68.63
50632;BME280;49583;45.590;-122.498;2023-02-20T04:41:59;102239.95;;;9.15;68.91
50632;BME280;49583;45.590;-122.498;2023-02-20T04:44:13;102239.67;;;9.11;68.85
50632;BME280;49583;45.590;-122.498;2023-02-20T04:46:47;102237.22;;;9.08;69.12
50632;BME280;49583;45.590;-122.498;2023-02-20T04:49:01;102229.75;;;9.04;69.39
50632;BME280;49583;45.590;-122.498;2023-02-20T04:51:15;102231.52;;;9.01;69.34
50632;BME280;49583;45.590;-122.498;2023-02-20T04:53:29;102235.31;;;8.97;69.69
50632;BME280;49583;45.590;-122.498;2023-02-20T04:55:43;102244.59;;;8.96;70.00
50632;BME280;49583;45.590;-122.498;2023-02-20T04:57:59;102249.92;;;8.94;69.82
50632;BME280;49583;45.590;-122.498;2023-02-20T05:00:20;102252.23;;;8.91;70.02
50632;BME280;49583;45.590;-122.498;2023-02-20T05:02:35;102256.73;;;8.91;70.23
50632;BME280;49583;45.590;-122.498;2023-02-20T05:04:49;102264.42;;;8.89;70.43
50632;BME280;49583;45.590;-122.498;2023-02-20T05:07:03;102272.04;;;8.88;70.46
50632;BME280;49583;45.590;-122.498;2023-02-20T05:09:16;102273.52;;;8.87;70.53
50632;BME280;49583;45.590;-122.498;2023-02-20T05:11:30;102279.11;;;8.86;70.61
50632;BME280;49583;45.590;-122.498;2023-02-20T05:13:44;102282.05;;;8.85;70.46
50632;BME280;49583;45.590;-122.498;2023-02-20T05:15:58;102276.95;;;8.83;70.43
50632;BME280;49583;45.590;-122.498;2023-02-20T05:18:12;102273.33;;;8.82;71.07
50632;BME280;49583;45.590;-122.498;2023-02-20T05:20:26;102271.72;;;8.81;70.83
50632;BME280;49583;45.590;-122.498;2023-02-20T05:22:52;102259.55;;;8.80;70.80
50632;BME280;49583;45.590;-122.498;2023-02-20T05:25:07;102257.55;;;8.79;70.75
50632;BME280;49583;45.590;-122.498;2023-02-20T05:27:21;102254.13;;;8.78;71.03
50632;BME280;49583;45.590;-122.498;2023-02-20T05:29:35;102252.83;;;8.77;70.76
50632;BME280;49583;45.590;-122.498;2023-02-20T05:31:48;102259.00;;;8.77;71.06
50632;BME280;49583;45.590;-122.498;2023-02-20T05:34:01;102265.40;;;8.77;71.24
50632;BME280;49583;45.590;-122.498;2023-02-20T05:36:15;102262.73;;;8.77;70.97
50632;BME280;49583;45.590;-122.498;2023-02-20T05:38:28;102261.80;;;8.77;71.22
50632;BME280;49583;45.590;-122.498;2023-02-20T05:40:42;102263.96;;;8.78;71.13
50632;BME280;49583;45.590;-122.498;2023-02-20T05:42:55;102268.91;;;8.79;71.42
50632;BME280;49583;45.590;-122.498;2023-02-20T05:45:09;102272.36;;;8.79;71.23
50632;BME280;49583;45.590;-122.498;2023-02-20T05:47:25;102281.55;;;8.78;71.02
50632;BME280;49583;45.590;-122.498;2023-02-20T05:49:37;102280.23;;;8.78;71.29
50632;BME280;49583;45.590;-122.498;2023-02-20T05:51:50;102279.02;;;8.79;71.41
50632;BME280;49583;45.590;-122.498;2023-02-20T05:54:04;102281.65;;;8.79;71.27
50632;BME280;49583;45.590;-122.498;2023-02-20T05:56:17;102281.17;;;8.78;71.39
50632;BME280;49583;45.590;-122.498;2023-02-20T05:58:31;102291.23;;;8.80;71.28
50632;BME280;49583;45.590;-122.498;2023-02-20T06:00:45;102295.51;;;8.79;71.34
50632;BME280;49583;45.590;-122.498;2023-02-20T06:02:58;102293.45;;;8.79;71.42
50632;BME280;49583;45.590;-122.498;2023-02-20T06:05:13;102286.23;;;8.78;71.13
50632;BME280;49583;45.590;-122.498;2023-02-20T06:07:25;102280.25;;;8.77;71.40
50632;BME280;49583;45.590;-122.498;2023-02-20T06:09:40;102270.66;;;8.76;71.42
50632;BME280;49583;45.590;-122.498;2023-02-20T06:11:55;102270.05;;;8.75;71.41
50632;BME280;49583;45.590;-122.498;2023-02-20T06:14:09;102284.31;;;8.75;71.50
50632;BME280;49583;45.590;-122.498;2023-02-20T06:16:26;102290.09;;;8.73;71.45
50632;BME280;49583;45.590;-122.498;2023-02-20T06:18:42;102296.98;;;8.72;71.69
50632;BME280;49583;45.590;-122.498;2023-02-20T06:20:57;102304.00;;;8.71;71.59
50632;BME280;49583;45.590;-122.498;2023-02-20T06:23:09;102297.71;;;8.69;71.49
50632;BME280;49583;45.590;-122.498;2023-02-20T06:25:23;102286.20;;;8.66;71.39
50632;BME280;49583;45.590;-122.498;2023-02-20T06:27:40;102276.02;;;8.65;71.71
50632;BME280;49583;45.590;-122.498;2023-02-20T06:29:54;102278.77;;;8.64;71.73
50632;BME280;49583;45.590;-122.498;2023-02-20T06:32:08;102273.72;;;8.62;71.74
50632;BME280;49583;45.590;-122.498;2023-02-20T06:34:22;102269.42;;;8.61;71.73
50632;BME280;49583;45.590;-122.498;2023-02-20T06:36:36;102267.91;;;8.59;71.63
50632;BME280;49583;45.590;-122.498;2023-02-20T06:38:50;102266.70;;;8.57;71.84
50632;BME280;49583;45.590;-122.498;2023-02-20T06:41:07;102262.64;;;8.54;71.76
50632;BME280;49583;45.590;-122.498;2023-02-20T06:43:20;102270.56;;;8.52;71.64
50632;BME280;49583;45.590;-122.498;2023-02-20T06:45:35;102275.29;;;8.48;71.97
50632;BME280;49583;45.590;-122.498;2023-02-20T06:47:49;102282.86;;;8.45;71.94
50632;BME280;49583;45.590;-122.498;2023-02-20T06:50:03;102279.73;;;8.42;72.03
50632;BME280;49583;45.590;-122.498;2023-02-20T06:52:17;102278.42;;;8.42;72.01
50632;BME280;49583;45.590;-122.498;2023-02-20T06:54:30;102276.59;;;8.41;72.06
50632;BME280;49583;45.590;-122.498;2023-02-20T06:56:44;102278.05;;;8.39;72.10
50632;BME280;49583;45.590;-122.498;2023-02-20T06:58:58;102273.25;;;8.38;72.08
50632;BME280;49583;45.590;-122.498;2023-02-20T07:01:12;102264.64;;;8.38;72.29
50632;BME280;49583;45.590;-122.498;2023-02-20T07:03:26;102265.73;;;8.38;72.13
50632;BME280;49583;45.590;-122.498;2023-02-20T07:05:39;102262.94;;;8.38;72.38
50632;BME280;49583;45.590;-122.498;2023-02-20T07:07:53;102254.59;;;8.38;72.55
50632;BME280;49583;45.590;-122.498;2023-02-20T07:10:07;102259.17;;;8.38;72.47
50632;BME280;49583;45.590;-122.498;2023-02-20T07:12:20;102260.84;;;8.37;72.37
50632;BME280;49583;45.590;-122.498;2023-02-20T07:14:34;102245.88;;;8.37;72.61
50632;BME280;49583;45.590;-122.498;2023-02-20T07:16:47;102226.60;;;8.35;72.57
50632;BME280;49583;45.590;-122.498;2023-02-20T07:19:01;102261.55;;;8.35;72.64
50632;BME280;49583;45.590;-122.498;2023-02-20T07:21:15;102260.67;;;8.35;72.66
50632;BME280;49583;45.590;-122.498;2023-02-20T07:23:29;102253.48;;;8.34;72.64
50632;BME280;49583;45.590;-122.498;2023-02-20T07:25:42;102252.23;;;8.34;72.70
50632;BME280;49583;45.590;-122.498;2023-02-20T07:27:55;102242.08;;;8.34;72.78
50632;BME280;49583;45.590;-122.498;2023-02-20T07:30:11;102240.21;;;8.34;72.93
50632;BME280;49583;45.590;-122.498;2023-02-20T07:32:26;102244.70;;;8.34;72.90
50632;BME280;49583;45.590;-122.498;2023-02-20T07:34:39;102247.23;;;8.32;72.78
50632;BME280;49583;45.590;-122.498;2023-02-20T07:37:10;102249.30;;;8.32;72.75
50632;BME280;49583;45.590;-122.498;2023-02-20T07:39:24;102254.39;;;8.33;72.87
50632;BME280;49583;45.590;-122.498;2023-02-20T07:41:37;102247.58;;;8.35;73.00
50632;BME280;49583;45.590;-122.498;2023-02-20T07:44:11;102243.05;;;8.36;72.82
50632;BME280;49583;45.590;-122.498;2023-02-20T07:46:25;102242.20;;;8.38;72.77
50632;BME280;49583;45.590;-122.498;2023-02-20T07:48:38;102236.82;;;8.39;72.62
50632;BME280;49583;45.590;-122.498;2023-02-20T07:50:52;102230.75;;;8.40;72.47
50632;BME280;49583;45.590;-122.498;2023-02-20T07:53:06;102225.88;;;8.37;72.47
50632;BME280;49583;45.590;-122.498;2023-02-20T07:55:20;102224.36;;;8.37;72.61
50632;BME280;49583;45.590;-122.498;2023-02-20T07:57:35;102230.57;;;8.38;72.66
50632;BME280;49583;45.590;-122.498;2023-02-20T07:59:49;102242.58;;;8.38;72.55
50632;BME280;49583;45.590;-122.498;2023-02-20T08:02:02;102243.49;;;8.39;72.58
50632;BME280;49583;45.590;-122.498;2023-02-20T08:04:16;102240.56;;;8.41;72.54
50632;BME280;49583;45.590;-122.498;2023-02-20T08:06:30;102243.96;;;8.40;72.32
50632;BME280;49583;45.590;-122.498;2023-02-20T08:08:44;102252.70;;;8.40;72.50
50632;BME280;49583;45.590;-122.498;2023-02-20T08:10:59;102256.35;;;8.40;72.23
50632;BME280;49583;45.590;-122.498;2023-02-20T08:13:19;102261.29;;;8.39;72.58
50632;BME280;49583;45.590;-122.498;2023-02-20T08:15:33;102266.90;;;8.39;72.45
50632;BME280;49583;45.590;-122.498;2023-02-20T08:17:46;102264.40;;;8.39;72.29
50632;BME280;49583;45.590;-122.498;2023-02-20T08:20:02;102266.93;;;8.37;72.28
50632;BME280;49583;45.590;-122.498;2023-02-20T08:22:15;102260.80;;;8.36;72.25
50632;BME280;49583;45.590;-122.498;2023-02-20T08:24:32;102259.39;;;8.34;72.33
50632;BME280;49583;45.590;-122.498;2023-02-20T08:26:46;102258.63;;;8.33;72.61
50632;BME280;49583;45.590;-122.498;2023-02-20T08:28:59;102260.23;;;8.33;72.31
50632;BME280;49583;45.590;-122.498;2023-02-20T08:31:12;102260.14;;;8.31;72.16
50632;BME280;49583;45.590;-122.498;2023-02-20T08:33:40;102261.23;;;8.31;72.41
50632;BME280;49583;45.590;-122.498;2023-02-20T08:35:53;102255.63;;;8.29;72.37
50632;BME280;49583;45.590;-122.498;2023-02-20T08:38:21;102252.58;;;8.29;72.38
50632;BME280;49583;45.590;-122.498;2023-02-20T08:40:35;102253.31;;;8.28;72.32
50632;BME280;49583;45.590;-122.498;2023-02-20T08:42:50;102256.59;;;8.28;72.33
50632;BME280;49583;45.590;-122.498;2023-02-20T08:45:03;102253.52;;;8.28;72.39
50632;BME280;49583;45.590;-122.498;2023-02-20T08:47:20;102249.59;;;8.28;72.40
50632;BME280;49583;45.590;-122.498;2023-02-20T08:49:33;102247.41;;;8.28;72.53
50632;BME280;49583;45.590;-122.498;2023-02-20T08:51:47;102245.45;;;8.28;72.48
50632;BME280;49583;45.590;-122.498;2023-02-20T08:54:01;102241.36;;;8.28;72.47
50632;BME280;49583;45.590;-122.498;2023-02-20T08:56:21;102232.33;;;8.24;72.59
50632;BME280;49583;45.590;-122.498;2023-02-20T08:58:36;102227.06;;;8.22;72.51
50632;BME280;49583;45.590;-122.498;2023-02-20T09:00:50;102228.64;;;8.20;72.66
50632;BME280;49583;45.590;-122.498;2023-02-20T09:03:05;102223.38;;;8.19;72.63
50632;BME280;49583;45.590;-122.498;2023-02-20T09:05:19;102221.20;;;8.18;72.89
50632;BME280;49583;45.590;-122.498;2023-02-20T09:07:33;102225.23;;;8.17;72.74
50632;BME280;49583;45.590;-122.498;2023-02-20T09:09:46;102228.70;;;8.14;73.06
50632;BME280;49583;45.590;-122.498;2023-02-20T09:12:01;102229.36;;;8.11;72.91
50632;BME280;49583;45.590;-122.498;2023-02-20T09:14:14;102230.70;;;8.07;73.07
50632;BME280;49583;45.590;-122.498;2023-02-20T09:16:28;102231.94;;;8.05;73.25
50632;BME280;49583;45.590;-122.498;2023-02-20T09:18:42;102239.86;;;8.05;73.29
50632;BME280;49583;45.590;-122.498;2023-02-20T09:20:56;102240.00;;;8.04;73.45
50632;BME280;49583;45.590;-122.498;2023-02-20T09:23:10;102239.28;;;8.04;73.31
50632;BME280;49583;45.590;-122.498;2023-02-20T09:25:24;102235.80;;;8.03;73.20
50632;BME280;49583;45.590;-122.498;2023-02-20T09:27:37;102232.16;;;8.03;73.40
50632;BME280;49583;45.590;-122.498;2023-02-20T09:29:50;102243.44;;;8.04;73.45
50632;BME280;49583;45.590;-122.498;2023-02-20T09:32:05;102250.48;;;8.05;73.41
50632;BME280;49583;45.590;-122.498;2023-02-20T09:34:18;102256.52;;;8.07;73.42
50632;BME280;49583;45.590;-122.498;2023-02-20T09:36:32;102260.66;;;8.07;73.40
50632;BME280;49583;45.590;-122.498;2023-02-20T09:38:45;102271.15;;;8.12;73.52
50632;BME280;49583;45.590;-122.498;2023-02-20T09:40:59;102266.29;;;8.15;73.38
50632;BME280;49583;45.590;-122.498;2023-02-20T09:43:24;102263.55;;;8.16;73.68
50632;BME280;49583;45.590;-122.498;2023-02-20T09:45:39;102249.17;;;8.17;73.41
50632;BME280;49583;45.590;-122.498;2023-02-20T09:48:02;102244.64;;;8.17;73.64
50632;BME280;49583;45.590;-122.498;2023-02-20T09:50:27;102261.33;;;8.18;73.59
50632;BME280;49583;45.590;-122.498;2023-02-20T09:52:49;102269.34;;;8.19;73.32
50632;BME280;49583;45.590;-122.498;2023-02-20T09:55:10;102260.14;;;8.20;73.46
50632;BME280;49583;45.590;-122.498;2023-02-20T09:57:25;102262.28;;;8.21;73.37
50632;BME280;49583;45.590;-122.498;2023-02-20T09:59:40;102263.89;;;8.22;73.30
50632;BME280;49583;45.590;-122.498;2023-02-20T10:01:56;102273.02;;;8.22;73.47
50632;BME280;49583;45.590;-122.498;2023-02-20T10:04:14;102281.58;;;8.22;73.26
50632;BME280;49583;45.590;-122.498;2023-02-20T10:06:32;102287.48;;;8.22;73.40
50632;BME280;49583;45.590;-122.498;2023-02-20T10:08:46;102297.13;;;8.23;73.57
50632;BME280;49583;45.590;-122.498;2023-02-20T10:11:05;102297.86;;;8.22;73.40
50632;BME280;49583;45.590;-122.498;2023-02-20T10:13:36;102294.84;;;8.22;73.33
50632;BME280;49583;45.590;-122.498;2023-02-20T10:15:49;102297.61;;;8.23;73.44
50632;BME280;49583;45.590;-122.498;2023-02-20T10:18:16;102296.48;;;8.22;73.55
50632;BME280;49583;45.590;-122.498;2023-02-20T10:20:39;102298.79;;;8.22;73.64
50632;BME280;49583;45.590;-122.498;2023-02-20T10:23:00;102298.79;;;8.20;73.34
50632;BME280;49583;45.590;-122.498;2023-02-20T10:25:20;102306.73;;;8.18;73.31
50632;BME280;49583;45.590;-122.498;2023-02-20T10:27:41;102308.36;;;8.18;73.49
50632;BME280;49583;45.590;-122.498;2023-02-20T10:29:57;102300.17;;;8.19;73.55
50632;BME280;49583;45.590;-122.498;2023-02-20T10:32:15;102298.58;;;8.19;73.53
50632;BME280;49583;45.590;-122.498;2023-02-20T10:34:36;102297.98;;;8.19;73.63
50632;BME280;49583;45.590;-122.498;2023-02-20T10:36:55;102299.58;;;8.19;73.61
50632;BME280;49583;45.590;-122.498;2023-02-20T10:39:17;102298.64;;;8.19;73.64
50632;BME280;49583;45.590;-122.498;2023-02-20T10:41:34;102298.72;;;8.18;73.56
50632;BME280;49583;45.590;-122.498;2023-02-20T10:43:52;102295.90;;;8.16;73.66
50632;BME280;49583;45.590;-122.498;2023-02-20T10:46:11;102291.32;;;8.16;73.67
50632;BME280;49583;45.590;-122.498;2023-02-20T10:48:29;102281.40;;;8.15;73.61
50632;BME280;49583;45.590;-122.498;2023-02-20T10:50:49;102280.41;;;8.10;73.80
50632;BME280;49583;45.590;-122.498;2023-02-20T10:53:17;102283.35;;;8.07;73.71
50632;BME280;49583;45.590;-122.498;2023-02-20T10:55:36;102282.90;;;8.05;74.15
50632;BME280;49583;45.590;-122.498;2023-02-20T10:57:56;102278.99;;;8.02;73.92
50632;BME280;49583;45.590;-122.498;2023-02-20T11:00:15;102284.81;;;8.03;74.02
50632;BME280;49583;45.590;-122.498;2023-02-20T11:02:33;102287.34;;;8.02;74.12
50632;BME280;49583;45.590;-122.498;2023-02-20T11:04:51;102286.13;;;8.00;74.28
50632;BME280;49583;45.590;-122.498;2023-02-20T11:07:09;102279.52;;;7.99;74.35
50632;BME280;49583;45.590;-122.498;2023-02-20T11:09:23;102275.61;;;7.99;74.24
50632;BME280;49583;45.590;-122.498;2023-02-20T11:11:39;102272.88;;;7.99;74.40
50632;BME280;49583;45.590;-122.498;2023-02-20T11:13:55;102269.38;;;7.99;74.35
50632;BME280;49583;45.590;-122.498;2023-02-20T11:16:22;102271.02;;;7.99;74.40
50632;BME280;49583;45.590;-122.498;2023-02-20T11:18:39;102262.99;;;7.99;74.65
50632;BME280;49583;45.590;-122.498;2023-02-20T11:20:54;102257.56;;;7.98;74.44
50632;BME280;49583;45.590;-122.498;2023-02-20T11:23:08;102259.18;;;7.99;74.75
50632;BME280;49583;45.590;-122.498;2023-02-20T11:25:25;102259.90;;;7.98;74.72
50632;BME280;49583;45.590;-122.498;2023-02-20T11:27:39;102264.23;;;7.98;74.71
50632;BME280;49583;45.590;-122.498;2023-02-20T11:29:58;102260.19;;;7.98;74.44
50632;BME280;49583;45.590;-122.498;2023-02-20T11:32:36;102257.34;;;7.98;74.61
50632;BME280;49583;45.590;-122.498;2023-02-20T11:34:51;102251.98;;;7.99;74.77
50632;BME280;49583;45.590;-122.498;2023-02-20T11:37:16;102254.05;;;7.99;74.78
50632;BME280;49583;45.590;-122.498;2023-02-20T11:39:31;102261.46;;;8.00;74.82
50632;BME280;49583;45.590;-122.498;2023-02-20T11:41:45;102257.36;;;8.00;74.79
50632;BME280;49583;45.590;-122.498;2023-02-20T11:44:21;102260.35;;;8.01;74.82
50632;BME280;49583;45.590;-122.498;2023-02-20T11:46:34;102267.02;;;8.01;74.88